Time;durP1;ratioP1;P1;durP2;ratioP2;P2;SDS_P1;SDS_P2;PMS_P1;PMS_P2;Temp;Humidity;BMP_temperature;BMP_pressure;BME280_temperature;BME280_humidity;BME280_pressure;Samples;Min_cycle;Max_cycle;Signal;HPM_P1;HPM_P2
2021/12/16 00:02:36;;;;;;;6.00;3.22;;;10.30;94.50;;;;;;5049520;28;20068;-74
2021/12/16 00:07:46;;;;;;;11.63;3.10;;;10.30;94.50;;;;;;5053219;28;20033;-74
2021/12/16 00:10:24;;;;;;;6.97;2.50;;;10.30;94.50;;;;;;5037176;28;20068;-74
2021/12/16 00:30:07;;;;;;;8.20;2.85;;;10.40;94.90;;;;;;5053678;28;20468;-74
2021/12/16 00:34:52;;;;;;;3.88;2.53;;;10.40;95.00;;;;;;5049781;28;20045;-74
2021/12/16 00:37:18;;;;;;;1.73;1.20;;;10.40;95.00;;;;;;5036139;28;20422;-74
2021/12/16 00:39:47;;;;;;;7.70;2.63;;;10.40;95.00;;;;;;5046302;28;20068;-74
2021/12/16 00:42:30;;;;;;;7.75;4.00;;;10.40;95.00;;;;;;5040760;28;20492;-74
2021/12/16 00:47:46;;;;;;;2.45;1.15;;;10.40;95.00;;;;;;5044380;28;20030;-74
2021/12/16 00:55:50;;;;;;;9.73;2.67;;;10.50;95.10;;;;;;5041698;28;20123;-74
2021/12/16 00:58:19;;;;;;;3.08;2.28;;;10.50;95.20;;;;;;5047742;28;20021;-74
2021/12/16 01:00:55;;;;;;;6.45;3.35;;;10.50;95.20;;;;;;5046198;28;20507;-74
2021/12/16 01:03:31;;;;;;;7.68;3.67;;;10.50;95.20;;;;;;5045095;28;20400;-74
2021/12/16 01:06:15;;;;;;;11.07;4.50;;;10.50;95.30;;;;;;5039910;28;20100;-74
2021/12/16 01:09:07;;;;;;;10.52;4.03;;;10.50;95.30;;;;;;5039033;28;20539;-74
2021/12/16 01:37:23;;;;;;;6.15;2.65;;;10.60;95.40;;;;;;5051592;28;20572;-75
2021/12/16 01:50:29;;;;;;;4.95;1.88;;;10.70;95.30;;;;;;5051414;28;20037;-74
2021/12/16 01:56:03;;;;;;;2.83;2.40;;;10.70;95.40;;;;;;5048873;28;20037;-74
2021/12/16 01:58:32;;;;;;;4.05;1.55;;;10.70;95.40;;;;;;5031728;28;20032;-75
2021/12/16 02:01:22;;;;;;;24.00;2.75;;;10.70;95.30;;;;;;5033356;28;20045;-75
2021/12/16 02:03:56;;;;;;;5.38;2.47;;;10.80;95.30;;;;;;5040764;28;20084;-74
2021/12/16 02:09:13;;;;;;;7.93;2.97;;;10.70;95.30;;;;;;5065086;28;20032;-74
2021/12/16 02:29:18;;;;;;;5.00;2.53;;;10.90;95.20;;;;;;5038192;28;20027;-74
2021/12/16 02:31:51;;;;;;;5.03;2.55;;;10.90;95.20;;;;;;5036175;28;20033;-74
2021/12/16 02:36:49;;;;;;;13.35;3.17;;;10.90;95.10;;;;;;5032098;28;20018;-74
2021/12/16 02:39:29;;;;;;;2.15;1.55;;;10.90;95.20;;;;;;5045715;28;20396;-75
2021/12/16 02:42:05;;;;;;;4.57;1.80;;;10.90;95.20;;;;;;5049375;28;20035;-75
2021/12/16 02:44:38;;;;;;;11.68;4.03;;;10.90;95.20;;;;;;5041024;28;20035;-74
2021/12/16 02:49:51;;;;;;;4.82;2.10;;;10.90;95.20;;;;;;5039054;28;19916;-74
2021/12/16 02:52:20;;;;;;;5.13;2.05;;;10.90;95.20;;;;;;5037212;28;20131;-74
2021/12/16 02:54:49;;;;;;;2.05;1.40;;;10.90;95.20;;;;;;5039116;28;20451;-75
2021/12/16 02:57:16;;;;;;;6.28;2.35;;;11.00;95.20;;;;;;5051333;28;20502;-74
2021/12/16 02:59:43;;;;;;;7.95;1.65;;;10.90;95.20;;;;;;5052337;28;20036;-74
2021/12/16 03:02:14;;;;;;;5.65;1.83;;;11.00;95.20;;;;;;5051781;28;20171;-75
2021/12/16 03:04:44;;;;;;;;;;;11.00;95.10;;;;;;5035486;28;20493;-75
2021/12/16 03:07:13;;;;;;;4.32;1.83;;;11.00;95.10;;;;;;5046437;28;19998;-74
2021/12/16 03:14:54;;;;;;;5.15;1.65;;;11.00;95.00;;;;;;5038382;28;20127;-74
2021/12/16 03:17:39;;;;;;;;;;;11.00;95.00;;;;;;5040819;28;20036;-74
2021/12/16 03:20:14;;;;;;;4.90;1.65;;;11.00;95.00;;;;;;5047892;28;19996;-74
2021/12/16 03:25:33;;;;;;;20.48;4.20;;;11.00;95.00;;;;;;5032612;28;20096;-75
2021/12/16 03:36:27;;;;;;;6.15;1.52;;;11.10;94.80;;;;;;5048419;28;20034;-75
2021/12/16 03:39:08;;;;;;;1.20;1.02;;;11.10;94.80;;;;;;5047399;28;20472;-75
2021/12/16 03:41:34;;;;;;;7.63;3.00;;;11.10;94.80;;;;;;5042275;28;20032;-74
2021/12/16 03:44:06;;;;;;;1.52;1.27;;;11.00;94.80;;;;;;5036828;28;20050;-75
2021/12/16 03:46:40;;;;;;;2.13;1.52;;;11.10;94.80;;;;;;5047124;28;20041;-75
2021/12/16 03:49:14;;;;;;;2.63;2.13;;;11.00;94.70;;;;;;5039369;28;20969;-75
2021/12/16 03:51:45;;;;;;;6.63;2.60;;;11.00;94.70;;;;;;5049491;28;20048;-75
2021/12/16 03:54:34;;;;;;;9.70;2.88;;;11.00;94.80;;;;;;5040320;28;20038;-75
2021/12/16 03:57:11;;;;;;;10.05;3.78;;;11.00;94.80;;;;;;5049460;28;20036;-75
2021/12/16 03:59:39;;;;;;;4.97;1.70;;;11.00;94.70;;;;;;5054547;28;20484;-74
2021/12/16 04:02:25;;;;;;;11.23;2.83;;;11.10;94.70;;;;;;5036279;28;20279;-75
2021/12/16 04:04:54;;;;;;;7.45;2.38;;;11.00;94.60;;;;;;5047210;28;20489;-75
2021/12/16 04:07:24;;;;;;;10.88;4.57;;;11.00;94.60;;;;;;5039246;28;20511;-74
2021/12/16 04:10:16;;;;;;;11.45;3.63;;;11.00;94.60;;;;;;5038688;28;20472;-74
2021/12/16 04:12:42;;;;;;;13.40;3.95;;;11.00;94.60;;;;;;5052597;28;20053;-74
2021/12/16 04:15:09;;;;;;;12.98;3.58;;;11.00;94.60;;;;;;5052062;28;20069;-74
2021/12/16 04:17:42;;;;;;;8.00;3.13;;;11.10;94.60;;;;;;5052929;28;20492;-74
2021/12/16 04:20:11;;;;;;;13.65;3.35;;;11.10;94.60;;;;;;5034821;28;20086;-74
2021/12/16 04:22:42;;;;;;;6.57;3.08;;;11.10;94.50;;;;;;5049590;28;20124;-74
2021/12/16 04:25:24;;;;;;;10.13;2.72;;;11.10;94.40;;;;;;5055378;28;20384;-74
2021/12/16 04:27:53;;;;;;;6.03;3.38;;;11.10;94.40;;;;;;5042066;28;20028;-74
2021/12/16 04:30:22;;;;;;;2.75;2.22;;;11.10;94.40;;;;;;5042141;28;20034;-74
2021/12/16 04:32:48;;;;;;;3.95;2.13;;;11.10;94.30;;;;;;5038834;28;20021;-75
2021/12/16 04:35:17;;;;;;;2.70;1.65;;;11.10;94.30;;;;;;5054985;28;20484;-74
2021/12/16 04:37:47;;;;;;;2.78;1.75;;;11.10;94.30;;;;;;5041256;28;20017;-74
2021/12/16 04:40:16;;;;;;;4.68;1.92;;;11.00;94.20;;;;;;5050605;28;20036;-75
2021/12/16 04:42:47;;;;;;;7.53;2.30;;;11.00;94.20;;;;;;5042552;28;20495;-74
2021/12/16 04:45:17;;;;;;;9.77;2.55;;;11.00;94.30;;;;;;5040228;28;20638;-75
2021/12/16 04:47:44;;;;;;;3.03;1.67;;;10.90;94.30;;;;;;5042906;28;20026;-75
2021/12/16 04:50:12;;;;;;;10.90;2.78;;;10.90;94.30;;;;;;5033084;28;20493;-75
2021/12/16 04:52:38;;;;;;;14.15;3.38;;;10.90;94.30;;;;;;5033769;28;20112;-74
2021/12/16 04:55:06;;;;;;;10.45;2.80;;;10.90;94.30;;;;;;5050252;28;20032;-74
2021/12/16 04:57:33;;;;;;;7.65;2.83;;;10.90;94.30;;;;;;5053417;28;20025;-75
2021/12/16 04:59:59;;;;;;;6.78;2.55;;;10.90;94.30;;;;;;5034745;28;20065;-75
2021/12/16 05:02:27;;;;;;;8.18;3.08;;;10.90;94.30;;;;;;5032701;28;20079;-74
2021/12/16 05:05:13;;;;;;;7.88;3.35;;;10.90;94.20;;;;;;5034750;28;20681;-75
2021/12/16 05:07:43;;;;;;;10.77;3.75;;;10.90;94.20;;;;;;5045624;28;20052;-75
2021/12/16 05:10:21;;;;;;;10.07;3.50;;;10.90;94.20;;;;;;5033677;28;20041;-75
2021/12/16 05:12:59;;;;;;;9.93;3.30;;;10.90;94.20;;;;;;5033049;28;20496;-75
2021/12/16 05:15:31;;;;;;;8.25;3.80;;;11.00;94.20;;;;;;5041051;28;20048;-75
2021/12/16 05:18:01;;;;;;;11.02;3.30;;;10.90;94.10;;;;;;5032462;28;20027;-74
2021/12/16 05:20:35;;;;;;;4.25;2.90;;;11.00;94.10;;;;;;5032339;28;20029;-75
2021/12/16 05:28:27;;;;;;;9.07;3.47;;;10.90;93.90;;;;;;5037839;28;20092;-75
2021/12/16 05:30:54;;;;;;;10.98;3.85;;;10.90;93.90;;;;;;5031447;28;20032;-75
2021/12/16 05:33:22;;;;;;;9.40;3.58;;;10.90;93.90;;;;;;5032236;28;20048;-75
2021/12/16 05:35:49;;;;;;;13.25;4.20;;;10.90;93.90;;;;;;5034866;28;20042;-75
2021/12/16 05:38:15;;;;;;;8.18;3.22;;;10.90;93.90;;;;;;5045328;28;20498;-74
2021/12/16 05:40:41;;;;;;;5.60;2.45;;;10.90;93.80;;;;;;5032774;28;20026;-75
2021/12/16 05:43:14;;;;;;;9.15;3.45;;;10.80;93.70;;;;;;5041849;28;20029;-76
2021/12/16 05:45:42;;;;;;;9.95;2.70;;;10.80;93.70;;;;;;5035123;28;20115;-74
2021/12/16 05:48:10;;;;;;;15.90;3.08;;;10.80;93.70;;;;;;5038858;28;20476;-76
2021/12/16 05:50:40;;;;;;;14.82;3.72;;;10.80;93.70;;;;;;5034917;28;20049;-76
2021/12/16 05:53:06;;;;;;;9.60;4.32;;;10.80;93.70;;;;;;5032841;28;20017;-76
2021/12/16 05:55:32;;;;;;;15.10;3.83;;;10.70;93.70;;;;;;5031609;28;20052;-76
2021/12/16 05:58:36;;;;;;;6.47;3.05;;;10.80;93.70;;;;;;5034373;28;20049;-76
2021/12/16 06:01:10;;;;;;;8.70;3.25;;;10.70;93.70;;;;;;5031058;28;20029;-76
2021/12/16 06:03:37;;;;;;;11.27;3.75;;;10.70;93.70;;;;;;5031684;28;20029;-76
2021/12/16 06:06:04;;;;;;;15.32;4.22;;;10.70;93.70;;;;;;5031092;28;20029;-76
2021/12/16 06:08:31;;;;;;;5.82;2.72;;;10.70;93.70;;;;;;5035976;28;20083;-77
2021/12/16 06:13:28;;;;;;;9.88;3.70;;;10.70;93.70;;;;;;5037539;28;20029;-78
2021/12/16 06:29:30;;;;;;;14.77;3.88;;;10.70;93.60;;;;;;5031170;28;20069;-78
2021/12/16 06:31:56;;;;;;;10.75;2.95;;;10.60;93.50;;;;;;5030534;28;20111;-75
2021/12/16 06:34:23;;;;;;;8.93;3.17;;;10.60;93.50;;;;;;5033871;28;20045;-76
2021/12/16 06:36:48;;;;;;;12.88;3.67;;;10.70;93.80;;;;;;5031135;28;20091;-77
2021/12/16 06:39:14;;;;;;;15.73;3.28;;;10.60;93.50;;;;;;5036154;28;20809;-76
2021/12/16 06:42:00;;;;;;;5.47;2.17;;;10.60;93.40;;;;;;5030827;28;20397;-75
2021/12/16 06:47:56;;;;;;;5.25;2.35;;;10.50;93.40;;;;;;5028836;28;20635;-76
2021/12/16 06:53:09;;;;;;;12.52;3.72;;;10.50;93.40;;;;;;5036087;28;20029;-75
2021/12/16 06:55:47;;;;;;;6.32;2.67;;;10.50;93.40;;;;;;5052378;28;20491;-75
2021/12/16 06:58:28;;;;;;;8.05;2.28;;;10.50;93.50;;;;;;5052382;28;20037;-75
2021/12/16 07:01:06;;;;;;;11.52;3.47;;;10.40;93.50;;;;;;5035663;28;20030;-75
2021/12/16 07:03:44;;;;;;;10.23;3.92;;;10.40;93.50;;;;;;5032037;28;20033;-75
2021/12/16 07:06:10;;;;;;;13.90;4.32;;;10.40;93.50;;;;;;5032601;28;20045;-75
2021/12/16 07:08:36;;;;;;;15.80;4.65;;;10.40;93.60;;;;;;5031769;28;20029;-75
2021/12/16 07:11:03;;;;;;;21.08;5.72;;;10.50;93.60;;;;;;5040507;28;20036;-75
2021/12/16 07:13:35;;;;;;;19.67;5.53;;;10.50;93.70;;;;;;5052148;28;20069;-75
2021/12/16 07:16:00;;;;;;;22.40;4.75;;;10.60;93.70;;;;;;5051759;28;20044;-75
2021/12/16 07:18:26;;;;;;;12.75;4.88;;;10.60;93.60;;;;;;5044439;28;20116;-76
2021/12/16 07:20:52;;;;;;;10.77;4.63;;;10.70;93.60;;;;;;5032351;28;20072;-76
2021/12/16 07:23:18;;;;;;;14.43;4.40;;;10.70;93.60;;;;;;5051050;28;20033;-76
2021/12/16 07:25:44;;;;;;;12.45;4.40;;;10.70;93.60;;;;;;5036585;28;20120;-76
2021/12/16 07:28:09;;;;;;;9.90;3.78;;;10.80;93.50;;;;;;5040307;28;20049;-86
2021/12/16 07:30:38;;;;;;;11.25;4.63;;;10.80;93.50;;;;;;5034639;28;20457;-75
2021/12/16 07:33:05;;;;;;;22.48;4.43;;;10.80;93.40;;;;;;5044027;28;20423;-75
2021/12/16 07:35:31;;;;;;;14.27;4.05;;;10.80;93.40;;;;;;5032539;28;20153;-75
2021/12/16 07:37:57;;;;;;;12.27;4.10;;;10.80;93.40;;;;;;5044843;28;20112;-75
2021/12/16 07:40:26;;;;;;;11.60;4.60;;;10.80;93.40;;;;;;5031306;28;20083;-75
2021/12/16 07:45:32;;;;;;;14.48;4.35;;;10.90;93.40;;;;;;5051124;28;20086;-75
2021/12/16 07:47:59;;;;;;;10.15;3.75;;;10.90;93.30;;;;;;5033835;28;20030;-75
2021/12/16 07:50:26;;;;;;;14.80;3.90;;;10.90;93.20;;;;;;5041474;28;20077;-75
2021/12/16 07:52:52;;;;;;;17.75;4.78;;;10.90;93.10;;;;;;5035163;28;20033;-75
2021/12/16 07:55:19;;;;;;;17.38;4.82;;;10.90;93.10;;;;;;5052012;28;20094;-75
2021/12/16 07:57:45;;;;;;;19.25;4.13;;;10.90;93.10;;;;;;5039790;28;20029;-75
2021/12/16 08:00:19;;;;;;;8.77;3.65;;;10.80;93.00;;;;;;5051866;28;20040;-75
2021/12/16 08:02:45;;;;;;;;;;;10.80;93.00;;;;;;5033488;28;20037;-75
2021/12/16 08:05:11;;;;;;;23.63;5.63;;;10.80;92.90;;;;;;5032031;28;19913;-75
2021/12/16 08:07:38;;;;;;;18.02;4.57;;;10.80;92.80;;;;;;5031899;28;20035;-75
2021/12/16 08:10:07;;;;;;;31.05;5.10;;;10.70;92.90;;;;;;5031554;28;20159;-72
2021/12/16 08:12:33;;;;;;;20.50;5.43;;;10.70;92.90;;;;;;5033073;28;20124;-75
2021/12/16 08:14:59;;;;;;;33.70;5.20;;;10.70;93.00;;;;;;5036619;28;20037;-75
2021/12/16 08:17:25;;;;;;;19.73;4.93;;;10.70;93.00;;;;;;5054573;28;20041;-75
2021/12/16 08:19:51;;;;;;;23.38;4.90;;;10.70;93.10;;;;;;5037098;28;20117;-75
2021/12/16 08:22:16;;;;;;;23.80;4.72;;;10.70;93.10;;;;;;5046338;28;20075;-75
2021/12/16 08:24:42;;;;;;;45.10;5.82;;;10.70;93.00;;;;;;5041941;28;20091;-75
2021/12/16 08:27:09;;;;;;;23.25;4.20;;;10.70;93.00;;;;;;5054094;28;20033;-75
2021/12/16 08:29:34;;;;;;;17.45;3.72;;;10.70;93.00;;;;;;5054413;28;20029;-75
2021/12/16 08:32:00;;;;;;;16.55;3.88;;;10.70;93.00;;;;;;5054523;28;20031;-75
2021/12/16 08:34:29;;;;;;;28.20;4.68;;;10.60;92.90;;;;;;5055006;28;20387;-75
2021/12/16 08:36:55;;;;;;;22.58;4.97;;;10.70;93.00;;;;;;5043315;28;20116;-75
2021/12/16 08:39:25;;;;;;;11.35;4.28;;;10.70;93.00;;;;;;5039685;28;20429;-75
2021/12/16 08:41:54;;;;;;;23.42;4.78;;;10.70;93.10;;;;;;5041794;28;20830;-75
2021/12/16 08:44:20;;;;;;;6.70;3.35;;;10.60;93.10;;;;;;5055250;28;20052;-75
2021/12/16 08:46:50;;;;;;;7.65;3.67;;;10.60;93.00;;;;;;5050322;28;20036;-74
2021/12/16 08:49:16;;;;;;;8.10;4.15;;;10.60;93.00;;;;;;5054963;28;20036;-75
2021/12/16 08:51:49;;;;;;;4.55;3.03;;;10.60;93.00;;;;;;5052328;28;20053;-75
2021/12/16 08:54:15;;;;;;;15.53;4.73;;;10.60;93.10;;;;;;5034623;28;20045;-74
2021/12/16 08:56:43;;;;;;;10.48;5.05;;;10.60;93.10;;;;;;5051910;28;20272;-75
2021/12/16 08:59:09;;;;;;;9.48;4.32;;;10.60;93.10;;;;;;5054799;28;20182;-75
2021/12/16 09:01:45;;;;;;;18.52;5.25;;;10.60;93.10;;;;;;5049337;28;20021;-75
2021/12/16 09:04:12;;;;;;;11.50;4.97;;;10.60;93.20;;;;;;5034819;28;20046;-75
2021/12/16 09:06:39;;;;;;;16.65;5.15;;;10.60;93.10;;;;;;5046927;28;20025;-75
2021/12/16 09:09:07;;;;;;;12.75;4.70;;;10.60;93.10;;;;;;5048428;28;20041;-75
2021/12/16 09:11:38;;;;;;;24.73;6.43;;;10.60;93.10;;;;;;5047142;28;20472;-75
2021/12/16 09:14:04;;;;;;;23.38;5.85;;;10.60;93.10;;;;;;5048474;28;20041;-75
2021/12/16 09:16:31;;;;;;;23.77;6.88;;;10.60;93.40;;;;;;5054069;28;20090;-75
2021/12/16 09:18:57;;;;;;;24.17;5.65;;;10.70;93.20;;;;;;5054300;28;20383;-75
2021/12/16 09:21:30;;;;;;;32.92;6.93;;;10.70;93.20;;;;;;5040848;28;20021;-75
2021/12/16 09:23:57;;;;;;;11.98;5.68;;;10.70;93.30;;;;;;5054502;28;20032;-75
2021/12/16 09:26:23;;;;;;;16.92;7.55;;;10.70;93.30;;;;;;5053458;28;20047;-75
2021/12/16 09:28:49;;;;;;;27.50;5.97;;;10.80;93.30;;;;;;5053425;28;20029;-74
2021/12/16 09:31:17;;;;;;;34.53;6.72;;;10.80;93.30;;;;;;5053499;28;20044;-75
2021/12/16 09:33:47;;;;;;;39.63;7.20;;;10.80;93.30;;;;;;5039195;28;20059;-75
2021/12/16 09:36:16;;;;;;;51.13;7.22;;;10.80;93.40;;;;;;5045762;28;20064;-75
2021/12/16 09:38:43;;;;;;;52.58;8.27;;;10.90;93.40;;;;;;5035732;28;20056;-74
2021/12/16 09:41:10;;;;;;;70.80;9.05;;;10.90;93.50;;;;;;5045400;28;20041;-75
2021/12/16 09:43:40;;;;;;;40.75;7.65;;;10.90;93.80;;;;;;5035369;28;20022;-75
2021/12/16 09:46:11;;;;;;;36.28;7.65;;;11.00;93.60;;;;;;5049125;28;20025;-81
2021/12/16 09:48:38;;;;;;;26.80;5.97;;;11.10;93.50;;;;;;5054322;28;20068;-85
2021/12/16 09:51:06;;;;;;;44.55;6.78;;;11.10;93.50;;;;;;5043320;28;20128;-82
2021/12/16 09:53:34;;;;;;;28.42;6.82;;;11.20;93.40;;;;;;5038911;28;20035;-82
2021/12/16 09:56:01;;;;;;;36.65;7.13;;;11.20;93.40;;;;;;5041750;28;20404;-82
2021/12/16 09:58:37;;;;;;;18.13;6.93;;;11.20;93.40;;;;;;5046712;28;20068;-76
2021/12/16 10:01:05;;;;;;;33.85;6.95;;;11.30;93.40;;;;;;5034324;28;20043;-76
2021/12/16 10:03:33;;;;;;;35.85;7.43;;;11.20;93.40;;;;;;5052853;28;20025;-76
2021/12/16 10:05:59;;;;;;;23.00;6.50;;;11.30;93.30;;;;;;5049982;28;20025;-76
2021/12/16 10:08:24;;;;;;;29.70;6.70;;;11.30;93.30;;;;;;5046115;28;20037;-76
2021/12/16 10:10:50;;;;;;;35.78;7.43;;;11.30;93.30;;;;;;5036893;28;20047;-76
2021/12/16 10:13:23;;;;;;;22.20;6.40;;;11.30;93.20;;;;;;5034331;28;20034;-76
2021/12/16 10:18:30;;;;;;;38.00;7.40;;;11.30;93.10;;;;;;5052922;28;20040;-76
2021/12/16 10:20:59;;;;;;;29.65;5.07;;;11.30;93.00;;;;;;5039372;28;20030;-76
2021/12/16 10:23:34;;;;;;;22.52;5.35;;;11.20;92.90;;;;;;5041080;28;20044;-76
2021/12/16 10:26:04;;;;;;;48.67;5.65;;;11.20;92.90;;;;;;5036333;28;20450;-75
2021/12/16 10:28:36;;;;;;;29.95;5.70;;;11.20;92.90;;;;;;5043491;28;20040;-75
2021/12/16 10:31:14;;;;;;;67.30;6.93;;;11.20;93.00;;;;;;5051193;28;20373;-76
2021/12/16 10:33:54;;;;;;;47.40;6.07;;;11.10;93.00;;;;;;5045069;28;20065;-75
2021/12/16 10:36:28;;;;;;;57.95;5.55;;;11.20;93.00;;;;;;5043876;28;20120;-75
2021/12/16 10:39:04;;;;;;;45.40;5.90;;;11.10;93.00;;;;;;5039024;28;20027;-76
2021/12/16 10:41:34;;;;;;;35.25;6.07;;;11.10;93.10;;;;;;5044566;28;20524;-75
2021/12/16 10:44:14;;;;;;;28.30;5.15;;;11.10;93.10;;;;;;5036869;28;20025;-75
2021/12/16 10:46:54;;;;;;;54.78;5.85;;;11.10;93.20;;;;;;5048033;28;20029;-76
2021/12/16 10:49:25;;;;;;;47.88;5.75;;;11.10;93.20;;;;;;5035545;28;20028;-74
2021/12/16 10:51:55;;;;;;;38.67;5.25;;;11.20;93.20;;;;;;5032799;28;20129;-80
2021/12/16 10:54:25;;;;;;;37.55;5.88;;;11.20;93.20;;;;;;5046344;28;20439;-72
2021/12/16 10:56:53;;;;;;;35.60;6.18;;;11.20;93.20;;;;;;5050883;28;20024;-76
2021/12/16 10:59:27;;;;;;;43.20;6.78;;;11.20;93.10;;;;;;5050060;28;20115;-74
2021/12/16 11:01:55;;;;;;;;;;;11.20;93.20;;;;;;5033078;28;20041;-73
2021/12/16 11:04:35;;;;;;;36.20;6.57;;;11.20;93.10;;;;;;5033194;28;20260;-79
2021/12/16 11:07:06;;;;;;;44.75;5.53;;;11.20;93.10;;;;;;5033495;28;20465;-75
2021/12/16 11:09:55;;;;;;;35.00;5.60;;;11.20;93.20;;;;;;5044412;28;20507;-76
2021/12/16 11:12:56;;;;;;;17.92;2.58;;;11.20;93.20;;;;;;5043521;28;20041;-75
2021/12/16 11:15:33;;;;;;;13.93;5.43;;;11.20;93.20;;;;;;5039137;28;20047;-75
2021/12/16 11:18:07;;;;;;;38.55;6.07;;;11.20;93.20;;;;;;5048242;28;20362;-75
2021/12/16 11:20:41;;;;;;;58.30;7.22;;;11.20;93.30;;;;;;5042123;28;20039;-75
2021/12/16 11:23:07;;;;;;;;;;;11.20;93.40;;;;;;5052168;28;20030;-75
2021/12/16 11:25:37;;;;;;;18.13;5.15;;;11.20;93.30;;;;;;5052023;28;19932;-75
2021/12/16 11:28:12;;;;;;;55.42;7.10;;;11.20;93.30;;;;;;5035113;28;20087;-75
2021/12/16 11:30:43;;;;;;;64.40;6.65;;;11.20;93.40;;;;;;5046934;28;20052;-75
2021/12/16 11:33:13;;;;;;;61.00;6.47;;;11.30;93.50;;;;;;5043581;28;20056;-75
2021/12/16 11:35:44;;;;;;;62.92;7.85;;;11.30;93.50;;;;;;5034407;28;20384;-75
2021/12/16 11:38:15;;;;;;;45.92;6.72;;;11.30;93.60;;;;;;5052316;28;20035;-75
2021/12/16 11:41:23;;;;;;;59.30;7.47;;;11.30;93.60;;;;;;5034143;28;20036;-75
2021/12/16 11:44:01;;;;;;;71.88;7.28;;;11.30;93.60;;;;;;5036012;28;20209;-75
2021/12/16 11:46:35;;;;;;;43.55;6.32;;;11.40;93.60;;;;;;5046864;28;20482;-79
2021/12/16 11:49:09;;;;;;;55.22;7.35;;;11.40;93.50;;;;;;5040407;28;20027;-81
2021/12/16 11:51:45;;;;;;;22.55;6.50;;;11.40;93.50;;;;;;5046060;28;20132;-81
2021/12/16 11:54:46;;;;;;;39.30;7.10;;;11.40;93.50;;;;;;5051703;28;20030;-81
2021/12/16 11:57:14;;;;;;;42.22;4.90;;;11.40;93.60;;;;;;5052351;28;20102;-80
2021/12/16 11:59:44;;;;;;;22.13;5.43;;;11.40;93.50;;;;;;5050512;28;20025;-82
2021/12/16 12:02:33;;;;;;;30.70;5.57;;;11.40;93.50;;;;;;5043718;28;20058;-81
2021/12/16 12:05:36;;;;;;;18.05;4.75;;;11.40;93.60;;;;;;5039611;28;20029;-73
2021/12/16 12:08:08;;;;;;;8.52;2.97;;;11.40;93.50;;;;;;5053714;28;20033;-79
2021/12/16 12:11:00;;;;;;;4.60;2.63;;;11.40;93.50;;;;;;5054179;28;20033;-78
2021/12/16 12:13:33;;;;;;;6.63;3.53;;;11.40;93.60;;;;;;5051938;28;20029;-77
2021/12/16 12:16:14;;;;;;;23.50;3.78;;;11.30;93.60;;;;;;5045407;28;20042;-69
2021/12/16 12:18:44;;;;;;;43.38;5.65;;;11.40;93.70;;;;;;5036237;28;20480;-81
2021/12/16 12:21:38;;;;;;;44.70;5.53;;;11.30;93.70;;;;;;5044802;28;20037;-80
2021/12/16 12:24:38;;;;;;;2.38;1.58;;;11.40;93.80;;;;;;5033264;28;20416;-80
2021/12/16 12:27:11;;;;;;;28.73;5.70;;;11.40;93.80;;;;;;5023324;28;20061;-80
2021/12/16 12:30:08;;;;;;;16.58;5.60;;;11.40;93.90;;;;;;5036959;28;20116;-80
2021/12/16 12:32:43;;;;;;;10.65;3.92;;;11.40;93.90;;;;;;5033499;28;20037;-80
2021/12/16 12:35:25;;;;;;;13.23;4.88;;;11.40;93.90;;;;;;5042734;28;20554;-78
2021/12/16 12:37:55;;;;;;;12.60;4.45;;;11.40;94.00;;;;;;5036835;28;20041;-79
2021/12/16 12:40:39;;;;;;;22.73;5.93;;;11.40;94.00;;;;;;5039253;28;20029;-79
2021/12/16 12:43:07;;;;;;;7.32;2.80;;;11.40;94.10;;;;;;5033401;28;20030;-79
2021/12/16 12:45:41;;;;;;;4.10;2.50;;;11.40;94.10;;;;;;5036983;28;20553;-79
2021/12/16 12:48:11;;;;;;;6.03;3.10;;;11.40;94.20;;;;;;5034520;28;20079;-79
2021/12/16 12:50:40;;;;;;;7.40;3.67;;;11.40;94.20;;;;;;5034525;28;20370;-79
2021/12/16 12:53:49;;;;;;;9.90;3.35;;;11.40;94.30;;;;;;5040218;28;20021;-79
2021/12/16 12:56:16;;;;;;;22.00;5.13;;;11.40;94.40;;;;;;5035067;28;20077;-80
2021/12/16 12:59:11;;;;;;;2.47;1.77;;;11.40;94.40;;;;;;5036735;28;20034;-76
2021/12/16 13:01:51;;;;;;;10.52;4.57;;;11.30;94.50;;;;;;5034264;28;20032;-79
2021/12/16 13:04:22;;;;;;;5.85;3.38;;;11.40;94.60;;;;;;5037353;28;20171;-79
2021/12/16 13:06:52;;;;;;;3.00;2.03;;;11.40;94.60;;;;;;5050216;28;20029;-78
2021/12/16 13:09:29;;;;;;;12.50;3.35;;;11.30;94.60;;;;;;5043697;28;20033;-80
2021/12/16 13:11:56;;;;;;;3.88;2.78;;;11.40;94.70;;;;;;5053005;28;20029;-79
2021/12/16 13:14:40;;;;;;;7.82;2.78;;;11.40;94.70;;;;;;5048015;28;20396;-78
2021/12/16 13:26:12;;;;;;;10.38;5.43;;;11.40;94.90;;;;;;5046135;28;20105;-79
2021/12/16 13:28:56;;;;;;;16.80;6.07;;;11.40;94.90;;;;;;5033522;28;20037;-79
2021/12/16 13:31:48;;;;;;;7.75;4.43;;;11.40;94.90;;;;;;5038694;28;20037;-76
2021/12/16 13:35:11;;;;;;;6.32;3.25;;;11.40;94.90;;;;;;5035620;28;20030;-78
2021/12/16 13:37:41;;;;;;;17.10;6.38;;;11.40;94.90;;;;;;5028213;28;20099;-78
2021/12/16 13:40:24;;;;;;;17.77;8.02;;;11.40;95.00;;;;;;5031307;28;20026;-78
2021/12/16 13:42:56;;;;;;;3.47;1.88;;;11.40;95.00;;;;;;5031333;28;20133;-78
2021/12/16 13:45:35;;;;;;;9.27;3.95;;;11.50;95.00;;;;;;5033171;28;20026;-77
2021/12/16 14:05:31;;;;;;;14.23;6.45;;;11.60;94.80;;;;;;5035153;28;20392;-79
2021/12/16 14:07:58;;;;;;;7.72;4.18;;;11.60;94.80;;;;;;5033668;28;20033;-79
2021/12/16 14:10:50;;;;;;;21.27;7.07;;;11.60;94.80;;;;;;5034066;28;20045;-79
2021/12/16 14:16:14;;;;;;;4.95;2.78;;;11.60;94.80;;;;;;5035846;28;20029;-80
2021/12/16 14:27:22;;;;;;;25.95;5.55;;;11.60;94.80;;;;;;5032785;28;19913;-81
2021/12/16 14:38:41;;;;;;;17.42;5.93;;;11.70;94.80;;;;;;5030544;28;20046;-74
2021/12/16 14:41:13;;;;;;;13.88;6.20;;;11.70;94.80;;;;;;5036839;28;20033;-73
2021/12/16 14:43:56;;;;;;;13.18;6.07;;;11.70;94.80;;;;;;5034261;28;20437;-79
2021/12/16 14:46:28;;;;;;;17.08;7.20;;;11.80;94.80;;;;;;5041579;28;20036;-80
2021/12/16 14:48:54;;;;;;;11.55;4.40;;;11.70;94.70;;;;;;5033034;28;20048;-79
2021/12/16 14:51:24;;;;;;;17.08;7.47;;;11.70;94.70;;;;;;5031682;28;20049;-79
2021/12/16 14:53:56;;;;;;;17.33;5.70;;;11.80;94.80;;;;;;5015080;28;20032;-79
2021/12/16 14:56:36;;;;;;;13.57;6.18;;;11.80;94.80;;;;;;5039926;28;20036;-80
2021/12/16 14:59:06;;;;;;;18.52;5.93;;;11.80;94.80;;;;;;5041408;28;20025;-79
2021/12/16 15:01:41;;;;;;;17.70;7.18;;;11.70;94.70;;;;;;5030947;28;20525;-79
2021/12/16 15:04:09;;;;;;;7.15;2.63;;;11.80;94.80;;;;;;5035168;28;20505;-80
2021/12/16 15:06:50;;;;;;;8.55;4.13;;;11.80;94.70;;;;;;5031387;28;20143;-79
2021/12/16 15:09:38;;;;;;;21.05;6.68;;;11.80;94.70;;;;;;5037963;28;20029;-81
2021/12/16 15:37:04;;;;;;;22.98;9.40;;;12.00;94.70;;;;;;5044761;28;20033;-80
2021/12/16 15:45:06;;;;;;;26.70;9.23;;;12.00;94.90;;;;;;5047697;28;20444;-80
2021/12/16 15:47:39;;;;;;;28.73;10.50;;;12.10;95.00;;;;;;5054044;28;20177;-81
2021/12/16 15:50:06;;;;;;;25.58;9.70;;;12.10;95.00;;;;;;5048842;28;20396;-78
2021/12/16 15:52:44;;;;;;;28.48;9.30;;;12.10;95.00;;;;;;5035197;28;20095;-77
2021/12/16 15:55:19;;;;;;;30.05;11.13;;;12.20;95.10;;;;;;5036390;28;20041;-73
2021/12/16 15:57:45;;;;;;;32.03;10.38;;;12.20;95.10;;;;;;5049513;28;20036;-79
2021/12/16 16:00:18;;;;;;;35.17;9.98;;;12.30;95.10;;;;;;5037259;28;20029;-79
2021/12/16 16:02:43;;;;;;;23.10;9.52;;;12.30;95.10;;;;;;5036395;28;20068;-82
2021/12/16 16:05:10;;;;;;;24.85;9.60;;;12.30;95.00;;;;;;5037169;28;20037;-80
2021/12/16 16:07:37;;;;;;;33.22;10.02;;;12.30;95.00;;;;;;5036839;28;20025;-79
2021/12/16 16:10:05;;;;;;;30.73;10.27;;;12.40;95.00;;;;;;5037741;28;20147;-77
2021/12/16 16:12:33;;;;;;;36.45;11.52;;;12.40;95.00;;;;;;5037973;28;20481;-78
2021/12/16 16:15:16;;;;;;;38.47;11.45;;;12.40;95.00;;;;;;5038427;28;20037;-81
2021/12/16 16:17:55;;;;;;;31.48;10.43;;;12.50;95.00;;;;;;5035412;28;20484;-78
2021/12/16 16:20:32;;;;;;;30.15;10.50;;;12.50;94.90;;;;;;5034757;28;20037;-79
2021/12/16 16:23:10;;;;;;;34.22;10.90;;;12.50;94.80;;;;;;5047407;28;20021;-79
2021/12/16 16:25:37;;;;;;;35.13;10.23;;;12.50;94.80;;;;;;5048698;28;20082;-80
2021/12/16 16:28:04;;;;;;;26.38;10.77;;;12.50;94.80;;;;;;5051460;28;20036;-79
2021/12/16 16:30:35;;;;;;;27.35;10.73;;;12.50;94.80;;;;;;5047314;28;20032;-73
2021/12/16 16:33:06;;;;;;;21.00;10.02;;;12.50;94.80;;;;;;5042499;28;20408;-78
2021/12/16 16:35:35;;;;;;;21.13;9.98;;;12.50;94.80;;;;;;5035211;28;20136;-79
2021/12/16 16:38:09;;;;;;;23.45;9.30;;;12.50;94.70;;;;;;5031539;28;20026;-78
2021/12/16 16:40:45;;;;;;;22.08;9.82;;;12.60;94.70;;;;;;5034914;28;20116;-86
2021/12/16 16:43:20;;;;;;;16.45;8.50;;;12.60;94.60;;;;;;5034840;28;20036;-77
2021/12/16 16:45:50;;;;;;;17.30;8.02;;;12.60;94.60;;;;;;5034270;28;20068;-76
2021/12/16 16:48:32;;;;;;;14.45;7.60;;;12.60;94.50;;;;;;5051030;28;20033;-75
2021/12/16 16:51:11;;;;;;;15.32;8.38;;;12.60;94.50;;;;;;5032948;28;20049;-75